sensor_id;sensor_type;location;lat;lon;timestamp;P1;durP1;ratioP1;P2;durP2;ratioP2
9485;SDS011;4781;48.776;9.200;2023-03-01T00:01:46;23.77;;;14.37;;
9485;SDS011;4781;48.776;9.200;2023-03-01T00:04:35;23.42;;;14.00;;
9485;SDS011;4781;48.776;9.200;2023-03-01T00:07:04;21.35;;;13.43;;
9485;SDS011;4781;48.776;9.200;2023-03-01T00:09:32;21.73;;;13.62;;
9485;SDS011;4781;48.776;9.200;2023-03-01T00:12:02;23.98;;;14.30;;
9485;SDS011;4781;48.776;9.200;2023-03-01T00:14:31;22.22;;;14.15;;
9485;SDS011;4781;48.776;9.200;2023-03-01T00:17:00;21.95;;;14.23;;
9485;SDS011;4781;48.776;9.200;2023-03-01T00:19:28;23.20;;;13.38;;
9485;SDS011;4781;48.776;9.200;2023-03-01T00:21:58;22.65;;;13.18;;
9485;SDS011;4781;48.776;9.200;2023-03-01T00:24:26;21.97;;;13.75;;
9485;SDS011;4781;48.776;9.200;2023-03-01T00:26:55;23.15;;;13.08;;
9485;SDS011;4781;48.776;9.200;2023-03-01T00:29:24;22.50;;;14.43;;
9485;SDS011;4781;48.776;9.200;2023-03-01T00:31:53;22.93;;;13.28;;
9485;SDS011;4781;48.776;9.200;2023-03-01T00:34:21;22.00;;;13.85;;
9485;SDS011;4781;48.776;9.200;2023-03-01T00:36:49;22.13;;;13.62;;
9485;SDS011;4781;48.776;9.200;2023-03-01T00:39:18;24.30;;;13.93;;
9485;SDS011;4781;48.776;9.200;2023-03-01T00:41:46;19.98;;;13.05;;
9485;SDS011;4781;48.776;9.200;2023-03-01T00:44:15;24.10;;;13.90;;
9485;SDS011;4781;48.776;9.200;2023-03-01T00:46:43;23.02;;;13.18;;
9485;SDS011;4781;48.776;9.200;2023-03-01T00:49:12;21.02;;;13.48;;
9485;SDS011;4781;48.776;9.200;2023-03-01T00:51:41;21.27;;;13.53;;
9485;SDS011;4781;48.776;9.200;2023-03-01T00:54:09;22.00;;;12.95;;
9485;SDS011;4781;48.776;9.200;2023-03-01T00:56:38;20.77;;;13.53;;
9485;SDS011;4781;48.776;9.200;2023-03-01T00:59:06;22.58;;;13.55;;
9485;SDS011;4781;48.776;9.200;2023-03-01T01:01:35;21.30;;;12.63;;
9485;SDS011;4781;48.776;9.200;2023-03-01T01:04:04;23.90;;;14.60;;
9485;SDS011;4781;48.776;9.200;2023-03-01T01:06:36;24.15;;;13.50;;
9485;SDS011;4781;48.776;9.200;2023-03-01T01:09:14;23.62;;;13.68;;
9485;SDS011;4781;48.776;9.200;2023-03-01T01:11:45;24.82;;;14.18;;
9485;SDS011;4781;48.776;9.200;2023-03-01T01:14:16;19.35;;;12.82;;
9485;SDS011;4781;48.776;9.200;2023-03-01T01:16:45;21.62;;;13.50;;
9485;SDS011;4781;48.776;9.200;2023-03-01T01:19:14;23.15;;;13.98;;
9485;SDS011;4781;48.776;9.200;2023-03-01T01:21:43;21.82;;;13.65;;
9485;SDS011;4781;48.776;9.200;2023-03-01T01:24:11;19.70;;;12.93;;
9485;SDS011;4781;48.776;9.200;2023-03-01T01:26:43;21.05;;;14.05;;
9485;SDS011;4781;48.776;9.200;2023-03-01T01:29:11;19.60;;;13.25;;
9485;SDS011;4781;48.776;9.200;2023-03-01T01:31:40;22.60;;;13.68;;
9485;SDS011;4781;48.776;9.200;2023-03-01T01:34:14;25.90;;;14.55;;
9485;SDS011;4781;48.776;9.200;2023-03-01T01:36:48;21.30;;;13.10;;
9485;SDS011;4781;48.776;9.200;2023-03-01T01:39:26;22.67;;;14.07;;
9485;SDS011;4781;48.776;9.200;2023-03-01T01:41:54;23.95;;;14.35;;
9485;SDS011;4781;48.776;9.200;2023-03-01T01:44:24;20.77;;;12.60;;
9485;SDS011;4781;48.776;9.200;2023-03-01T01:46:59;22.82;;;14.13;;
9485;SDS011;4781;48.776;9.200;2023-03-01T01:49:35;22.90;;;14.07;;
9485;SDS011;4781;48.776;9.200;2023-03-01T01:52:11;24.90;;;14.18;;
9485;SDS011;4781;48.776;9.200;2023-03-01T01:57:40;22.17;;;13.60;;
9485;SDS011;4781;48.776;9.200;2023-03-01T02:00:15;23.77;;;13.80;;
9485;SDS011;4781;48.776;9.200;2023-03-01T02:02:58;24.75;;;14.53;;
9485;SDS011;4781;48.776;9.200;2023-03-01T02:08:35;23.77;;;14.30;;
9485;SDS011;4781;48.776;9.200;2023-03-01T02:11:05;21.42;;;13.43;;
9485;SDS011;4781;48.776;9.200;2023-03-01T02:13:35;21.77;;;14.40;;
9485;SDS011;4781;48.776;9.200;2023-03-01T02:16:05;19.98;;;13.08;;
9485;SDS011;4781;48.776;9.200;2023-03-01T02:21:20;23.55;;;13.88;;
9485;SDS011;4781;48.776;9.200;2023-03-01T02:24:10;22.60;;;14.03;;
9485;SDS011;4781;48.776;9.200;2023-03-01T02:26:46;23.60;;;13.62;;
9485;SDS011;4781;48.776;9.200;2023-03-01T02:29:14;22.30;;;13.65;;
9485;SDS011;4781;48.776;9.200;2023-03-01T02:31:42;22.67;;;14.65;;
9485;SDS011;4781;48.776;9.200;2023-03-01T02:34:15;23.12;;;14.10;;
9485;SDS011;4781;48.776;9.200;2023-03-01T02:36:47;21.00;;;13.85;;
9485;SDS011;4781;48.776;9.200;2023-03-01T02:39:30;22.32;;;14.53;;
9485;SDS011;4781;48.776;9.200;2023-03-01T02:42:01;23.98;;;14.13;;
9485;SDS011;4781;48.776;9.200;2023-03-01T02:44:31;23.83;;;14.03;;
9485;SDS011;4781;48.776;9.200;2023-03-01T02:47:00;23.57;;;14.00;;
9485;SDS011;4781;48.776;9.200;2023-03-01T02:49:31;23.90;;;14.80;;
9485;SDS011;4781;48.776;9.200;2023-03-01T02:57:37;25.50;;;15.25;;
9485;SDS011;4781;48.776;9.200;2023-03-01T03:00:09;23.30;;;14.38;;
9485;SDS011;4781;48.776;9.200;2023-03-01T03:02:46;23.67;;;15.38;;
9485;SDS011;4781;48.776;9.200;2023-03-01T03:05:18;24.87;;;14.25;;
9485;SDS011;4781;48.776;9.200;2023-03-01T03:07:49;22.87;;;14.00;;
9485;SDS011;4781;48.776;9.200;2023-03-01T03:10:22;21.85;;;14.47;;
9485;SDS011;4781;48.776;9.200;2023-03-01T03:13:05;21.95;;;13.62;;
9485;SDS011;4781;48.776;9.200;2023-03-01T03:15:31;27.22;;;15.80;;
9485;SDS011;4781;48.776;9.200;2023-03-01T03:18:05;22.95;;;14.60;;
9485;SDS011;4781;48.776;9.200;2023-03-01T03:20:37;24.90;;;14.68;;
9485;SDS011;4781;48.776;9.200;2023-03-01T03:23:07;25.08;;;15.25;;
9485;SDS011;4781;48.776;9.200;2023-03-01T03:25:36;22.48;;;14.65;;
9485;SDS011;4781;48.776;9.200;2023-03-01T03:28:05;26.35;;;16.37;;
9485;SDS011;4781;48.776;9.200;2023-03-01T03:30:38;23.73;;;15.03;;
9485;SDS011;4781;48.776;9.200;2023-03-01T03:33:10;23.27;;;14.50;;
9485;SDS011;4781;48.776;9.200;2023-03-01T03:35:45;23.47;;;14.93;;
9485;SDS011;4781;48.776;9.200;2023-03-01T03:38:13;22.22;;;14.05;;
9485;SDS011;4781;48.776;9.200;2023-03-01T03:40:48;24.27;;;15.13;;
9485;SDS011;4781;48.776;9.200;2023-03-01T03:43:20;22.02;;;14.75;;
9485;SDS011;4781;48.776;9.200;2023-03-01T03:45:51;24.98;;;15.25;;
9485;SDS011;4781;48.776;9.200;2023-03-01T03:48:20;22.62;;;14.40;;
9485;SDS011;4781;48.776;9.200;2023-03-01T03:50:50;25.48;;;15.20;;
9485;SDS011;4781;48.776;9.200;2023-03-01T03:53:21;23.80;;;15.35;;
9485;SDS011;4781;48.776;9.200;2023-03-01T03:55:53;24.30;;;14.93;;
9485;SDS011;4781;48.776;9.200;2023-03-01T03:58:42;23.75;;;15.90;;
9485;SDS011;4781;48.776;9.200;2023-03-01T04:01:10;22.00;;;15.18;;
9485;SDS011;4781;48.776;9.200;2023-03-01T04:03:39;25.85;;;15.53;;
9485;SDS011;4781;48.776;9.200;2023-03-01T04:06:09;23.83;;;15.78;;
9485;SDS011;4781;48.776;9.200;2023-03-01T04:08:37;25.05;;;15.48;;
9485;SDS011;4781;48.776;9.200;2023-03-01T04:11:06;25.85;;;15.83;;
9485;SDS011;4781;48.776;9.200;2023-03-01T04:13:39;25.30;;;15.70;;
9485;SDS011;4781;48.776;9.200;2023-03-01T04:16:07;25.32;;;15.50;;
9485;SDS011;4781;48.776;9.200;2023-03-01T04:18:36;24.00;;;15.95;;
9485;SDS011;4781;48.776;9.200;2023-03-01T04:21:04;25.12;;;15.35;;
9485;SDS011;4781;48.776;9.200;2023-03-01T04:23:33;23.95;;;15.78;;
9485;SDS011;4781;48.776;9.200;2023-03-01T04:26:01;26.68;;;16.85;;
9485;SDS011;4781;48.776;9.200;2023-03-01T04:28:34;24.77;;;16.50;;
9485;SDS011;4781;48.776;9.200;2023-03-01T04:31:08;23.83;;;15.83;;
9485;SDS011;4781;48.776;9.200;2023-03-01T04:33:51;24.72;;;15.20;;
9485;SDS011;4781;48.776;9.200;2023-03-01T04:36:20;26.00;;;16.00;;
9485;SDS011;4781;48.776;9.200;2023-03-01T04:38:51;26.40;;;15.75;;
9485;SDS011;4781;48.776;9.200;2023-03-01T04:41:20;25.62;;;15.98;;
9485;SDS011;4781;48.776;9.200;2023-03-01T04:43:50;25.05;;;16.27;;
9485;SDS011;4781;48.776;9.200;2023-03-01T04:46:19;25.23;;;16.62;;
9485;SDS011;4781;48.776;9.200;2023-03-01T04:48:48;27.48;;;16.70;;
9485;SDS011;4781;48.776;9.200;2023-03-01T04:51:16;25.92;;;16.23;;
9485;SDS011;4781;48.776;9.200;2023-03-01T04:53:46;25.32;;;16.30;;
9485;SDS011;4781;48.776;9.200;2023-03-01T04:56:15;24.00;;;16.85;;
9485;SDS011;4781;48.776;9.200;2023-03-01T04:58:44;25.12;;;16.32;;
9485;SDS011;4781;48.776;9.200;2023-03-01T05:01:14;25.27;;;17.00;;
9485;SDS011;4781;48.776;9.200;2023-03-01T05:03:46;28.50;;;16.52;;
9485;SDS011;4781;48.776;9.200;2023-03-01T05:06:17;27.77;;;17.52;;
9485;SDS011;4781;48.776;9.200;2023-03-01T05:08:47;27.20;;;17.02;;
9485;SDS011;4781;48.776;9.200;2023-03-01T05:11:15;26.42;;;16.67;;
9485;SDS011;4781;48.776;9.200;2023-03-01T05:13:44;26.37;;;17.37;;
9485;SDS011;4781;48.776;9.200;2023-03-01T05:16:12;29.20;;;16.77;;
9485;SDS011;4781;48.776;9.200;2023-03-01T05:18:42;25.85;;;16.67;;
9485;SDS011;4781;48.776;9.200;2023-03-01T05:21:12;30.17;;;16.97;;
9485;SDS011;4781;48.776;9.200;2023-03-01T05:23:44;24.63;;;16.45;;
9485;SDS011;4781;48.776;9.200;2023-03-01T05:26:13;25.48;;;16.45;;
9485;SDS011;4781;48.776;9.200;2023-03-01T05:28:47;27.02;;;16.73;;
9485;SDS011;4781;48.776;9.200;2023-03-01T05:31:16;27.90;;;17.25;;
9485;SDS011;4781;48.776;9.200;2023-03-01T05:33:44;25.62;;;16.50;;
9485;SDS011;4781;48.776;9.200;2023-03-01T05:36:12;25.85;;;16.57;;
9485;SDS011;4781;48.776;9.200;2023-03-01T05:38:41;26.77;;;16.95;;
9485;SDS011;4781;48.776;9.200;2023-03-01T05:41:13;26.20;;;17.27;;
9485;SDS011;4781;48.776;9.200;2023-03-01T05:43:42;29.05;;;17.67;;
9485;SDS011;4781;48.776;9.200;2023-03-01T05:46:11;29.55;;;17.37;;
9485;SDS011;4781;48.776;9.200;2023-03-01T05:48:40;29.87;;;17.57;;
9485;SDS011;4781;48.776;9.200;2023-03-01T05:51:09;26.93;;;17.50;;
9485;SDS011;4781;48.776;9.200;2023-03-01T05:53:37;27.90;;;17.62;;
9485;SDS011;4781;48.776;9.200;2023-03-01T05:56:06;25.85;;;17.32;;
9485;SDS011;4781;48.776;9.200;2023-03-01T05:58:34;27.75;;;17.50;;
9485;SDS011;4781;48.776;9.200;2023-03-01T06:01:04;31.20;;;18.53;;
9485;SDS011;4781;48.776;9.200;2023-03-01T06:03:32;27.77;;;17.37;;
9485;SDS011;4781;48.776;9.200;2023-03-01T06:06:01;25.57;;;16.82;;
9485;SDS011;4781;48.776;9.200;2023-03-01T06:08:29;26.77;;;17.07;;
9485;SDS011;4781;48.776;9.200;2023-03-01T06:10:57;25.88;;;16.87;;
9485;SDS011;4781;48.776;9.200;2023-03-01T06:13:26;28.90;;;18.27;;
9485;SDS011;4781;48.776;9.200;2023-03-01T06:15:55;30.45;;;17.25;;
9485;SDS011;4781;48.776;9.200;2023-03-01T06:18:23;31.10;;;18.40;;
9485;SDS011;4781;48.776;9.200;2023-03-01T06:20:52;28.25;;;17.32;;
9485;SDS011;4781;48.776;9.200;2023-03-01T06:23:22;25.88;;;16.80;;
9485;SDS011;4781;48.776;9.200;2023-03-01T06:25:53;29.15;;;17.50;;
9485;SDS011;4781;48.776;9.200;2023-03-01T06:28:21;28.35;;;17.92;;
9485;SDS011;4781;48.776;9.200;2023-03-01T06:30:49;27.73;;;17.25;;
9485;SDS011;4781;48.776;9.200;2023-03-01T06:33:18;25.52;;;15.88;;
9485;SDS011;4781;48.776;9.200;2023-03-01T06:35:49;27.30;;;17.05;;
9485;SDS011;4781;48.776;9.200;2023-03-01T06:38:18;28.77;;;18.57;;
9485;SDS011;4781;48.776;9.200;2023-03-01T06:40:51;28.40;;;17.05;;
9485;SDS011;4781;48.776;9.200;2023-03-01T06:43:20;28.20;;;17.67;;
9485;SDS011;4781;48.776;9.200;2023-03-01T06:45:50;28.10;;;17.25;;
9485;SDS011;4781;48.776;9.200;2023-03-01T06:48:18;28.73;;;17.42;;
9485;SDS011;4781;48.776;9.200;2023-03-01T06:50:47;30.55;;;17.80;;
9485;SDS011;4781;48.776;9.200;2023-03-01T06:53:15;25.75;;;17.50;;
9485;SDS011;4781;48.776;9.200;2023-03-01T06:55:43;27.90;;;18.23;;
9485;SDS011;4781;48.776;9.200;2023-03-01T06:58:12;30.70;;;17.37;;
9485;SDS011;4781;48.776;9.200;2023-03-01T07:00:40;30.45;;;18.85;;
9485;SDS011;4781;48.776;9.200;2023-03-01T07:03:10;30.02;;;17.75;;
9485;SDS011;4781;48.776;9.200;2023-03-01T07:05:38;29.92;;;17.65;;
9485;SDS011;4781;48.776;9.200;2023-03-01T07:08:06;28.07;;;18.50;;
9485;SDS011;4781;48.776;9.200;2023-03-01T07:10:35;28.42;;;17.57;;
9485;SDS011;4781;48.776;9.200;2023-03-01T07:13:03;29.23;;;18.57;;
9485;SDS011;4781;48.776;9.200;2023-03-01T07:15:32;27.32;;;17.82;;
9485;SDS011;4781;48.776;9.200;2023-03-01T07:18:01;25.50;;;17.90;;
9485;SDS011;4781;48.776;9.200;2023-03-01T07:20:29;27.55;;;17.35;;
9485;SDS011;4781;48.776;9.200;2023-03-01T07:22:58;30.35;;;18.17;;
9485;SDS011;4781;48.776;9.200;2023-03-01T07:25:26;29.07;;;17.55;;
9485;SDS011;4781;48.776;9.200;2023-03-01T07:27:54;30.10;;;18.23;;
9485;SDS011;4781;48.776;9.200;2023-03-01T07:30:28;34.10;;;20.53;;
9485;SDS011;4781;48.776;9.200;2023-03-01T07:32:54;35.65;;;20.02;;
9485;SDS011;4781;48.776;9.200;2023-03-01T07:35:31;30.90;;;19.17;;
9485;SDS011;4781;48.776;9.200;2023-03-01T07:37:59;29.67;;;18.55;;
9485;SDS011;4781;48.776;9.200;2023-03-01T07:40:27;29.23;;;19.02;;
9485;SDS011;4781;48.776;9.200;2023-03-01T07:42:56;31.75;;;19.20;;
9485;SDS011;4781;48.776;9.200;2023-03-01T07:45:27;30.52;;;19.07;;
9485;SDS011;4781;48.776;9.200;2023-03-01T07:47:55;30.65;;;18.98;;
9485;SDS011;4781;48.776;9.200;2023-03-01T07:50:24;30.25;;;19.05;;
9485;SDS011;4781;48.776;9.200;2023-03-01T07:52:52;33.88;;;20.97;;
9485;SDS011;4781;48.776;9.200;2023-03-01T07:55:20;29.27;;;18.67;;
9485;SDS011;4781;48.776;9.200;2023-03-01T07:57:49;28.17;;;18.32;;
9485;SDS011;4781;48.776;9.200;2023-03-01T08:00:17;29.07;;;19.23;;
9485;SDS011;4781;48.776;9.200;2023-03-01T08:02:46;34.65;;;19.75;;
9485;SDS011;4781;48.776;9.200;2023-03-01T08:05:15;29.65;;;19.57;;
9485;SDS011;4781;48.776;9.200;2023-03-01T08:07:43;31.80;;;18.98;;
9485;SDS011;4781;48.776;9.200;2023-03-01T08:10:11;30.35;;;18.80;;
9485;SDS011;4781;48.776;9.200;2023-03-01T08:12:40;30.77;;;19.05;;
9485;SDS011;4781;48.776;9.200;2023-03-01T08:15:08;31.02;;;19.50;;
9485;SDS011;4781;48.776;9.200;2023-03-01T08:17:37;28.95;;;18.95;;
9485;SDS011;4781;48.776;9.200;2023-03-01T08:20:06;29.70;;;19.60;;
9485;SDS011;4781;48.776;9.200;2023-03-01T08:22:37;27.67;;;18.57;;
9485;SDS011;4781;48.776;9.200;2023-03-01T08:25:06;30.20;;;18.67;;
9485;SDS011;4781;48.776;9.200;2023-03-01T08:27:40;27.52;;;18.37;;
9485;SDS011;4781;48.776;9.200;2023-03-01T08:30:05;33.50;;;20.20;;
9485;SDS011;4781;48.776;9.200;2023-03-01T08:32:40;29.52;;;18.73;;
9485;SDS011;4781;48.776;9.200;2023-03-01T08:35:14;29.70;;;19.48;;
9485;SDS011;4781;48.776;9.200;2023-03-01T08:37:43;31.10;;;19.30;;
9485;SDS011;4781;48.776;9.200;2023-03-01T08:40:15;33.30;;;19.65;;
9485;SDS011;4781;48.776;9.200;2023-03-01T08:42:44;29.20;;;19.48;;
9485;SDS011;4781;48.776;9.200;2023-03-01T08:45:14;32.13;;;19.45;;
9485;SDS011;4781;48.776;9.200;2023-03-01T08:47:44;28.47;;;18.98;;
9485;SDS011;4781;48.776;9.200;2023-03-01T08:50:12;28.27;;;18.52;;
9485;SDS011;4781;48.776;9.200;2023-03-01T08:52:41;26.77;;;18.20;;
9485;SDS011;4781;48.776;9.200;2023-03-01T08:55:09;29.50;;;19.65;;
9485;SDS011;4781;48.776;9.200;2023-03-01T08:57:38;28.87;;;18.70;;
9485;SDS011;4781;48.776;9.200;2023-03-01T09:00:06;27.80;;;19.10;;
9485;SDS011;4781;48.776;9.200;2023-03-01T09:02:37;31.97;;;19.87;;
9485;SDS011;4781;48.776;9.200;2023-03-01T09:05:05;29.75;;;19.57;;
9485;SDS011;4781;48.776;9.200;2023-03-01T09:07:34;35.58;;;19.80;;
9485;SDS011;4781;48.776;9.200;2023-03-01T09:10:03;29.02;;;19.70;;
9485;SDS011;4781;48.776;9.200;2023-03-01T09:12:31;29.75;;;19.85;;
9485;SDS011;4781;48.776;9.200;2023-03-01T09:15:00;29.10;;;20.02;;
9485;SDS011;4781;48.776;9.200;2023-03-01T09:17:28;28.87;;;18.80;;
9485;SDS011;4781;48.776;9.200;2023-03-01T09:19:57;29.40;;;19.25;;
9485;SDS011;4781;48.776;9.200;2023-03-01T09:22:25;28.47;;;19.00;;
9485;SDS011;4781;48.776;9.200;2023-03-01T09:24:53;28.15;;;19.12;;
9485;SDS011;4781;48.776;9.200;2023-03-01T09:27:23;28.60;;;19.82;;
9485;SDS011;4781;48.776;9.200;2023-03-01T09:29:52;29.15;;;19.60;;
9485;SDS011;4781;48.776;9.200;2023-03-01T09:32:22;32.05;;;19.65;;
9485;SDS011;4781;48.776;9.200;2023-03-01T09:34:55;27.93;;;19.27;;
9485;SDS011;4781;48.776;9.200;2023-03-01T09:37:32;27.55;;;18.55;;
9485;SDS011;4781;48.776;9.200;2023-03-01T09:40:09;28.30;;;18.98;;
9485;SDS011;4781;48.776;9.200;2023-03-01T09:42:36;27.25;;;18.70;;
9485;SDS011;4781;48.776;9.200;2023-03-01T09:45:15;26.60;;;18.85;;
9485;SDS011;4781;48.776;9.200;2023-03-01T09:47:42;31.40;;;20.30;;
9485;SDS011;4781;48.776;9.200;2023-03-01T09:50:12;27.75;;;18.67;;
9485;SDS011;4781;48.776;9.200;2023-03-01T09:52:47;27.30;;;19.15;;
9485;SDS011;4781;48.776;9.200;2023-03-01T09:55:33;26.15;;;18.60;;
9485;SDS011;4781;48.776;9.200;2023-03-01T10:00:58;26.35;;;17.95;;
9485;SDS011;4781;48.776;9.200;2023-03-01T10:03:40;26.33;;;18.20;;
9485;SDS011;4781;48.776;9.200;2023-03-01T10:06:21;25.50;;;18.35;;
9485;SDS011;4781;48.776;9.200;2023-03-01T10:09:12;25.88;;;17.02;;
9485;SDS011;4781;48.776;9.200;2023-03-01T10:11:48;23.83;;;17.40;;
9485;SDS011;4781;48.776;9.200;2023-03-01T10:14:26;24.55;;;17.40;;
9485;SDS011;4781;48.776;9.200;2023-03-01T10:22:51;27.25;;;17.55;;
9485;SDS011;4781;48.776;9.200;2023-03-01T10:25:41;23.85;;;16.77;;
9485;SDS011;4781;48.776;9.200;2023-03-01T10:28:27;26.73;;;18.23;;
9485;SDS011;4781;48.776;9.200;2023-03-01T10:31:11;23.32;;;16.93;;
9485;SDS011;4781;48.776;9.200;2023-03-01T10:33:42;24.65;;;17.65;;
9485;SDS011;4781;48.776;9.200;2023-03-01T10:36:10;24.90;;;16.77;;
9485;SDS011;4781;48.776;9.200;2023-03-01T10:38:49;24.47;;;17.80;;
9485;SDS011;4781;48.776;9.200;2023-03-01T10:41:53;27.05;;;17.70;;
9485;SDS011;4781;48.776;9.200;2023-03-01T10:44:37;23.83;;;16.70;;
9485;SDS011;4781;48.776;9.200;2023-03-01T10:47:16;24.52;;;17.52;;
9485;SDS011;4781;48.776;9.200;2023-03-01T10:58:16;27.70;;;17.92;;
9485;SDS011;4781;48.776;9.200;2023-03-01T11:00:47;25.70;;;17.17;;
9485;SDS011;4781;48.776;9.200;2023-03-01T11:03:22;23.20;;;16.52;;
9485;SDS011;4781;48.776;9.200;2023-03-01T11:05:57;23.38;;;17.27;;
9485;SDS011;4781;48.776;9.200;2023-03-01T11:11:13;21.57;;;16.45;;
9485;SDS011;4781;48.776;9.200;2023-03-01T11:13:57;24.92;;;16.42;;
9485;SDS011;4781;48.776;9.200;2023-03-01T11:16:41;23.22;;;16.12;;
9485;SDS011;4781;48.776;9.200;2023-03-01T11:22:05;23.80;;;16.25;;
9485;SDS011;4781;48.776;9.200;2023-03-01T11:24:40;23.00;;;16.12;;
9485;SDS011;4781;48.776;9.200;2023-03-01T11:27:18;26.80;;;16.15;;
9485;SDS011;4781;48.776;9.200;2023-03-01T11:29:57;21.87;;;16.73;;
9485;SDS011;4781;48.776;9.200;2023-03-01T11:35:35;20.57;;;15.63;;
9485;SDS011;4781;48.776;9.200;2023-03-01T11:38:20;24.63;;;16.87;;
9485;SDS011;4781;48.776;9.200;2023-03-01T11:44:03;21.93;;;15.60;;
9485;SDS011;4781;48.776;9.200;2023-03-01T11:46:37;21.48;;;15.80;;
9485;SDS011;4781;48.776;9.200;2023-03-01T12:11:12;20.75;;;15.20;;
9485;SDS011;4781;48.776;9.200;2023-03-01T12:17:11;23.22;;;15.80;;
9485;SDS011;4781;48.776;9.200;2023-03-01T12:20:02;20.75;;;15.50;;
9485;SDS011;4781;48.776;9.200;2023-03-01T12:26:05;20.55;;;15.45;;
9485;SDS011;4781;48.776;9.200;2023-03-01T12:28:58;22.55;;;15.68;;
9485;SDS011;4781;48.776;9.200;2023-03-01T12:31:49;21.95;;;15.20;;
9485;SDS011;4781;48.776;9.200;2023-03-01T12:34:32;21.27;;;16.10;;
9485;SDS011;4781;48.776;9.200;2023-03-01T12:37:35;21.35;;;16.25;;
9485;SDS011;4781;48.776;9.200;2023-03-01T12:40:28;21.97;;;14.90;;
9485;SDS011;4781;48.776;9.200;2023-03-01T12:43:22;21.27;;;14.33;;
9485;SDS011;4781;48.776;9.200;2023-03-01T12:49:33;22.67;;;15.80;;
9485;SDS011;4781;48.776;9.200;2023-03-01T12:54:50;22.20;;;15.60;;
9485;SDS011;4781;48.776;9.200;2023-03-01T12:57:23;20.08;;;14.20;;
9485;SDS011;4781;48.776;9.200;2023-03-01T13:03:26;18.90;;;13.70;;
9485;SDS011;4781;48.776;9.200;2023-03-01T13:06:40;17.52;;;13.18;;
9485;SDS011;4781;48.776;9.200;2023-03-01T13:09:22;21.57;;;15.20;;
9485;SDS011;4781;48.776;9.200;2023-03-01T13:17:56;22.52;;;15.75;;
9485;SDS011;4781;48.776;9.200;2023-03-01T13:20:51;20.72;;;13.95;;
9485;SDS011;4781;48.776;9.200;2023-03-01T13:26:03;17.62;;;12.90;;
9485;SDS011;4781;48.776;9.200;2023-03-01T13:28:56;20.12;;;12.60;;
9485;SDS011;4781;48.776;9.200;2023-03-01T13:31:55;19.73;;;13.13;;
9485;SDS011;4781;48.776;9.200;2023-03-01T13:34:00;18.50;;;13.30;;
9485;SDS011;4781;48.776;9.200;2023-03-01T13:39:26;21.87;;;14.43;;
9485;SDS011;4781;48.776;9.200;2023-03-01T13:42:03;22.75;;;14.45;;
9485;SDS011;4781;48.776;9.200;2023-03-01T13:44:38;19.48;;;14.15;;
9485;SDS011;4781;48.776;9.200;2023-03-01T13:47:14;19.95;;;14.20;;
9485;SDS011;4781;48.776;9.200;2023-03-01T13:49:42;23.22;;;16.50;;
9485;SDS011;4781;48.776;9.200;2023-03-01T13:58:18;20.20;;;15.20;;
9485;SDS011;4781;48.776;9.200;2023-03-01T14:00:55;22.07;;;15.58;;
9485;SDS011;4781;48.776;9.200;2023-03-01T14:03:27;22.00;;;14.87;;
9485;SDS011;4781;48.776;9.200;2023-03-01T14:06:04;26.17;;;17.07;;
9485;SDS011;4781;48.776;9.200;2023-03-01T14:08:45;22.40;;;16.77;;
9485;SDS011;4781;48.776;9.200;2023-03-01T14:18:04;23.02;;;16.62;;
9485;SDS011;4781;48.776;9.200;2023-03-01T14:20:56;24.63;;;17.70;;
9485;SDS011;4781;48.776;9.200;2023-03-01T14:23:26;22.25;;;16.93;;
9485;SDS011;4781;48.776;9.200;2023-03-01T14:25:56;23.30;;;17.73;;
9485;SDS011;4781;48.776;9.200;2023-03-01T14:28:26;24.87;;;17.30;;
9485;SDS011;4781;48.776;9.200;2023-03-01T14:31:00;23.20;;;17.23;;
9485;SDS011;4781;48.776;9.200;2023-03-01T14:33:31;24.72;;;17.20;;
9485;SDS011;4781;48.776;9.200;2023-03-01T14:38:44;29.45;;;18.45;;
9485;SDS011;4781;48.776;9.200;2023-03-01T14:41:19;30.32;;;17.95;;
9485;SDS011;4781;48.776;9.200;2023-03-01T14:43:52;24.60;;;17.23;;
9485;SDS011;4781;48.776;9.200;2023-03-01T14:46:35;24.75;;;17.75;;
9485;SDS011;4781;48.776;9.200;2023-03-01T14:49:14;24.27;;;16.65;;
9485;SDS011;4781;48.776;9.200;2023-03-01T14:54:25;25.68;;;16.90;;
9485;SDS011;4781;48.776;9.200;2023-03-01T14:57:20;26.70;;;17.05;;
9485;SDS011;4781;48.776;9.200;2023-03-01T14:59:48;23.98;;;16.93;;
9485;SDS011;4781;48.776;9.200;2023-03-01T15:02:39;26.52;;;18.50;;
9485;SDS011;4781;48.776;9.200;2023-03-01T15:05:08;23.73;;;16.95;;
9485;SDS011;4781;48.776;9.200;2023-03-01T15:07:39;24.37;;;17.27;;
9485;SDS011;4781;48.776;9.200;2023-03-01T15:12:51;24.07;;;17.17;;
9485;SDS011;4781;48.776;9.200;2023-03-01T15:15:21;24.40;;;17.20;;
9485;SDS011;4781;48.776;9.200;2023-03-01T15:17:59;23.80;;;17.27;;
9485;SDS011;4781;48.776;9.200;2023-03-01T15:20:34;26.55;;;17.65;;
9485;SDS011;4781;48.776;9.200;2023-03-01T15:23:02;22.58;;;16.23;;
9485;SDS011;4781;48.776;9.200;2023-03-01T15:25:32;25.27;;;17.95;;
9485;SDS011;4781;48.776;9.200;2023-03-01T15:28:01;22.07;;;16.37;;
9485;SDS011;4781;48.776;9.200;2023-03-01T15:30:32;23.95;;;17.57;;
9485;SDS011;4781;48.776;9.200;2023-03-01T15:36:50;24.25;;;17.07;;
9485;SDS011;4781;48.776;9.200;2023-03-01T15:38:56;23.15;;;18.25;;
9485;SDS011;4781;48.776;9.200;2023-03-01T15:41:30;24.63;;;16.30;;
9485;SDS011;4781;48.776;9.200;2023-03-01T15:44:14;22.80;;;16.67;;
9485;SDS011;4781;48.776;9.200;2023-03-01T15:46:47;25.35;;;17.82;;
9485;SDS011;4781;48.776;9.200;2023-03-01T15:52:10;27.95;;;16.90;;
9485;SDS011;4781;48.776;9.200;2023-03-01T15:54:47;24.52;;;16.37;;
9485;SDS011;4781;48.776;9.200;2023-03-01T15:57:16;26.85;;;16.85;;
9485;SDS011;4781;48.776;9.200;2023-03-01T15:59:45;23.83;;;17.20;;
9485;SDS011;4781;48.776;9.200;2023-03-01T16:02:15;25.62;;;16.93;;
9485;SDS011;4781;48.776;9.200;2023-03-01T16:04:45;24.77;;;17.17;;
9485;SDS011;4781;48.776;9.200;2023-03-01T16:07:15;24.77;;;16.40;;
9485;SDS011;4781;48.776;9.200;2023-03-01T16:09:44;25.00;;;16.40;;
9485;SDS011;4781;48.776;9.200;2023-03-01T16:12:13;25.02;;;17.62;;
9485;SDS011;4781;48.776;9.200;2023-03-01T16:14:42;23.67;;;16.87;;
9485;SDS011;4781;48.776;9.200;2023-03-01T16:17:11;25.52;;;16.90;;
9485;SDS011;4781;48.776;9.200;2023-03-01T16:19:39;26.00;;;16.65;;
9485;SDS011;4781;48.776;9.200;2023-03-01T16:22:11;23.25;;;16.50;;
9485;SDS011;4781;48.776;9.200;2023-03-01T16:24:39;27.87;;;16.15;;
9485;SDS011;4781;48.776;9.200;2023-03-01T16:27:08;25.65;;;16.32;;
9485;SDS011;4781;48.776;9.200;2023-03-01T16:29:37;21.65;;;16.10;;
9485;SDS011;4781;48.776;9.200;2023-03-01T16:32:05;29.40;;;20.15;;
9485;SDS011;4781;48.776;9.200;2023-03-01T16:34:33;24.02;;;17.57;;
9485;SDS011;4781;48.776;9.200;2023-03-01T16:37:02;22.45;;;16.17;;
9485;SDS011;4781;48.776;9.200;2023-03-01T16:39:30;25.50;;;15.88;;
9485;SDS011;4781;48.776;9.200;2023-03-01T16:41:59;23.30;;;16.60;;
9485;SDS011;4781;48.776;9.200;2023-03-01T16:44:28;24.95;;;17.27;;
9485;SDS011;4781;48.776;9.200;2023-03-01T16:46:56;27.42;;;16.90;;
9485;SDS011;4781;48.776;9.200;2023-03-01T16:49:24;25.10;;;15.55;;
9485;SDS011;4781;48.776;9.200;2023-03-01T16:51:53;24.47;;;16.75;;
9485;SDS011;4781;48.776;9.200;2023-03-01T16:54:22;26.17;;;17.25;;
9485;SDS011;4781;48.776;9.200;2023-03-01T16:56:50;23.42;;;16.32;;
9485;SDS011;4781;48.776;9.200;2023-03-01T16:59:18;24.02;;;15.72;;
9485;SDS011;4781;48.776;9.200;2023-03-01T17:01:50;23.05;;;15.28;;
9485;SDS011;4781;48.776;9.200;2023-03-01T17:04:18;27.00;;;15.58;;
9485;SDS011;4781;48.776;9.200;2023-03-01T17:06:47;30.25;;;15.45;;
9485;SDS011;4781;48.776;9.200;2023-03-01T17:09:15;25.12;;;15.18;;
9485;SDS011;4781;48.776;9.200;2023-03-01T17:11:45;25.45;;;15.58;;
9485;SDS011;4781;48.776;9.200;2023-03-01T17:14:15;25.30;;;15.38;;
9485;SDS011;4781;48.776;9.200;2023-03-01T17:16:43;25.75;;;16.23;;
9485;SDS011;4781;48.776;9.200;2023-03-01T17:19:12;24.67;;;16.35;;